createdAt,value
2022-11-10T00:01:46.437Z,1.00
2022-11-10T00:04:16.653Z,0.98
2022-11-10T00:06:49.895Z,1.30
2022-11-10T00:09:20.255Z,1.30
2022-11-10T00:11:50.334Z,0.95
2022-11-10T00:14:38.471Z,1.35
2022-11-10T00:17:08.605Z,1.35
2022-11-10T00:19:38.803Z,0.90
2022-11-10T00:22:11.422Z,1.25
2022-11-10T00:24:41.373Z,0.65
2022-11-10T00:27:11.448Z,0.77
2022-11-10T00:29:41.559Z,0.63
2022-11-10T00:32:11.870Z,0.77
2022-11-10T00:34:42.169Z,1.20
2022-11-10T00:37:15.049Z,1.40
2022-11-10T00:39:45.193Z,1.23
2022-11-10T00:42:15.260Z,1.05
2022-11-10T00:44:45.217Z,1.58
2022-11-10T00:47:16.058Z,1.50
2022-11-10T00:49:46.104Z,1.15
2022-11-10T00:52:19.001Z,1.25
2022-11-10T00:54:49.056Z,1.33
2022-11-10T00:57:19.329Z,0.85
2022-11-10T00:59:49.500Z,0.70
2022-11-10T01:02:21.874Z,0.95
2022-11-10T01:04:51.948Z,0.95
2022-11-10T01:07:24.662Z,1.42
2022-11-10T01:09:54.692Z,1.20
2022-11-10T01:12:24.753Z,0.82
2022-11-10T01:14:54.739Z,1.10
2022-11-10T01:17:24.963Z,1.20
2022-11-10T01:19:54.994Z,0.95
2022-11-10T01:22:27.479Z,0.80
2022-11-10T01:24:57.501Z,1.40
2022-11-10T01:27:27.537Z,1.13
2022-11-10T01:29:57.546Z,0.80
2022-11-10T01:32:28.642Z,1.27
2022-11-10T01:37:31.347Z,1.52
2022-11-10T01:40:01.733Z,0.73
2022-11-10T01:42:44.147Z,1.20
2022-11-10T01:45:48.956Z,0.77
2022-11-10T01:48:22.338Z,1.40
2022-11-10T01:50:52.659Z,1.15
2022-11-10T01:53:30.377Z,1.48
2022-11-10T01:58:40.044Z,1.35
2022-11-10T02:01:10.832Z,1.23
2022-11-10T02:03:45.726Z,1.58
2022-11-10T02:06:16.940Z,1.48
2022-11-10T02:11:20.353Z,1.30
2022-11-10T02:13:51.182Z,1.77
2022-11-10T02:16:22.084Z,1.38
2022-11-10T02:18:52.469Z,1.13
2022-11-10T02:21:25.289Z,1.00
2022-11-10T02:23:56.955Z,1.20
2022-11-10T02:26:29.674Z,1.63
2022-11-10T02:28:59.744Z,1.63
2022-11-10T02:31:29.750Z,1.70
2022-11-10T02:34:00.092Z,1.38
2022-11-10T02:36:32.706Z,1.55
2022-11-10T02:39:03.059Z,1.52
2022-11-10T02:41:33.139Z,1.33
2022-11-10T02:44:03.624Z,1.40
2022-11-10T02:46:33.644Z,1.17
2022-11-10T02:49:03.937Z,1.48
2022-11-10T02:51:36.552Z,1.20
2022-11-10T02:54:06.803Z,1.50
2022-11-10T02:56:36.892Z,1.40
2022-11-10T02:59:07.426Z,1.83
2022-11-10T03:01:37.583Z,2.10
2022-11-10T03:04:08.816Z,1.65
2022-11-10T03:06:41.589Z,1.63
2022-11-10T03:09:14.005Z,1.75
2022-11-10T03:11:44.195Z,1.50
2022-11-10T03:14:14.499Z,1.52
2022-11-10T03:16:44.448Z,1.90
2022-11-10T03:19:14.510Z,1.13
2022-11-10T03:21:47.209Z,1.30
2022-11-10T03:24:17.549Z,1.30
2022-11-10T03:26:47.537Z,1.75
2022-11-10T03:29:17.531Z,1.08
2022-11-10T03:31:47.566Z,1.10
2022-11-10T03:34:17.746Z,1.33
2022-11-10T03:36:50.297Z,0.82
2022-11-10T03:39:20.404Z,1.23
2022-11-10T03:41:50.412Z,1.20
2022-11-10T03:44:20.481Z,1.45
2022-11-10T03:46:51.669Z,1.02
2022-11-10T03:49:22.037Z,0.77
2022-11-10T03:51:54.672Z,1.23
2022-11-10T03:54:24.951Z,1.00
2022-11-10T03:56:55.062Z,1.20
2022-11-10T03:59:25.067Z,0.90
2022-11-10T04:01:55.225Z,0.82
2022-11-10T04:04:37.953Z,1.00
2022-11-10T04:07:24.624Z,1.17
2022-11-10T04:09:54.652Z,0.90
2022-11-10T04:12:37.035Z,1.27
2022-11-10T04:15:20.062Z,1.02
2022-11-10T04:17:52.793Z,1.33
2022-11-10T04:20:23.184Z,1.45
2022-11-10T04:23:08.178Z,2.25
2022-11-10T04:25:58.218Z,0.90
2022-11-10T04:28:28.510Z,1.38
2022-11-10T04:30:58.782Z,1.20
2022-11-10T04:33:28.791Z,1.17
2022-11-10T04:35:58.913Z,1.58
2022-11-10T04:38:31.633Z,1.75
2022-11-10T04:41:01.920Z,1.15
2022-11-10T04:43:32.638Z,1.88
2022-11-10T04:46:03.359Z,1.85
2022-11-10T04:48:34.133Z,1.33
2022-11-10T04:51:07.057Z,1.42
2022-11-10T04:53:39.930Z,1.35
2022-11-10T04:56:10.444Z,1.15
2022-11-10T04:58:40.446Z,1.20
2022-11-10T05:01:10.683Z,0.98
2022-11-10T05:03:41.052Z,0.82
2022-11-10T05:06:11.697Z,1.20
2022-11-10T05:08:45.636Z,1.17
2022-11-10T05:11:16.351Z,1.23
2022-11-10T05:13:47.826Z,0.90
2022-11-10T05:16:18.128Z,1.35
2022-11-10T05:18:54.159Z,1.45
2022-11-10T05:21:24.198Z,1.23
2022-11-10T05:23:56.839Z,1.45
2022-11-10T05:26:27.195Z,1.38
2022-11-10T05:28:57.286Z,1.33
2022-11-10T05:31:27.392Z,1.13
2022-11-10T05:33:57.719Z,1.70
2022-11-10T05:36:27.764Z,1.60
2022-11-10T05:39:00.389Z,2.22
2022-11-10T05:41:30.646Z,1.40
2022-11-10T05:44:00.661Z,2.08
2022-11-10T05:46:31.813Z,2.03
2022-11-10T05:51:31.817Z,1.02
2022-11-10T05:54:04.434Z,1.23
2022-11-10T05:56:34.551Z,1.52
2022-11-10T05:59:04.575Z,1.23
2022-11-10T06:01:34.708Z,1.50
2022-11-10T06:04:04.745Z,1.40
2022-11-10T06:06:34.898Z,1.80
2022-11-10T06:09:07.621Z,2.53
2022-11-10T06:11:37.665Z,1.90
2022-11-10T06:14:07.617Z,1.80
2022-11-10T06:16:37.783Z,1.77
2022-11-10T06:19:07.738Z,2.13
2022-11-10T06:21:37.810Z,2.40
2022-11-10T06:24:11.216Z,1.48
2022-11-10T06:26:41.499Z,1.08
2022-11-10T06:29:11.598Z,1.50
2022-11-10T06:31:41.840Z,1.55
2022-11-10T06:34:12.072Z,1.63
2022-11-10T06:36:42.126Z,1.38
2022-11-10T06:39:15.470Z,1.17
2022-11-10T06:41:45.663Z,1.00
2022-11-10T06:44:15.658Z,1.63
2022-11-10T06:46:45.765Z,1.98
2022-11-10T06:49:15.749Z,1.65
2022-11-10T06:51:45.879Z,1.48
2022-11-10T06:54:18.904Z,1.55
2022-11-10T06:56:49.008Z,1.38
2022-11-10T06:59:19.117Z,2.13
2022-11-10T07:01:49.226Z,1.58
2022-11-10T07:04:20.786Z,1.73
2022-11-10T07:06:52.157Z,1.23
2022-11-10T07:09:24.957Z,1.17
2022-11-10T07:11:54.963Z,1.75
2022-11-10T07:14:24.993Z,2.35
2022-11-10T07:16:54.997Z,1.85
2022-11-10T07:19:25.030Z,1.35
2022-11-10T07:21:55.074Z,1.67
2022-11-10T07:24:30.612Z,2.05
2022-11-10T07:27:01.185Z,1.85
2022-11-10T07:29:31.300Z,1.40
2022-11-10T07:32:01.382Z,1.92
2022-11-10T07:34:31.325Z,1.38
2022-11-10T07:37:01.631Z,1.63
2022-11-10T07:39:34.436Z,1.42
2022-11-10T07:42:04.544Z,2.20
2022-11-10T07:44:34.880Z,1.55
2022-11-10T07:47:04.933Z,1.63
2022-11-10T07:49:34.930Z,1.65
2022-11-10T07:52:04.938Z,1.70
2022-11-10T07:54:37.464Z,1.10
2022-11-10T07:57:07.541Z,1.20
2022-11-10T07:59:37.474Z,1.08
2022-11-10T08:02:07.438Z,1.00
2022-11-10T08:04:37.380Z,1.73
2022-11-10T08:07:07.418Z,1.02
2022-11-10T08:09:40.018Z,1.40
2022-11-10T08:12:10.107Z,1.42
2022-11-10T08:14:40.070Z,1.92
2022-11-10T08:17:10.006Z,2.13
2022-11-10T08:19:39.959Z,2.33
2022-11-10T08:22:09.864Z,1.50
2022-11-10T08:24:42.500Z,1.55
2022-11-10T08:27:12.405Z,2.55
2022-11-10T08:29:42.387Z,1.50
2022-11-10T08:32:12.388Z,1.38
2022-11-10T08:34:42.360Z,2.33
2022-11-10T08:37:12.309Z,1.45
2022-11-10T08:39:44.874Z,1.77
2022-11-10T08:42:14.817Z,1.42
2022-11-10T08:44:44.778Z,3.78
2022-11-10T08:47:14.649Z,1.73
2022-11-10T08:49:44.640Z,1.75
2022-11-10T08:52:14.598Z,2.53
2022-11-10T08:54:47.179Z,1.42
2022-11-10T08:57:17.147Z,1.73
2022-11-10T08:59:47.188Z,1.23
2022-11-10T09:02:17.146Z,1.80
2022-11-10T09:04:47.195Z,1.90
2022-11-10T09:07:17.210Z,1.60
2022-11-10T09:10:01.512Z,1.40
2022-11-10T09:12:36.421Z,2.08
2022-11-10T09:15:07.347Z,1.23
2022-11-10T09:17:37.300Z,1.77
2022-11-10T09:20:09.176Z,1.42
2022-11-10T09:22:39.474Z,1.77
2022-11-10T09:25:12.508Z,2.03
2022-11-10T09:27:42.541Z,1.98
2022-11-10T09:30:17.704Z,1.52
2022-11-10T09:32:48.983Z,2.53
2022-11-10T09:35:19.139Z,1.70
2022-11-10T09:37:49.029Z,2.42
2022-11-10T09:40:25.314Z,2.03
2022-11-10T09:42:59.385Z,1.67
2022-11-10T09:45:37.805Z,1.63
2022-11-10T09:48:18.626Z,1.65
2022-11-10T09:50:53.970Z,1.48
2022-11-10T09:53:27.380Z,2.00
2022-11-10T09:56:03.819Z,2.17
2022-11-10T09:58:38.497Z,1.70
2022-11-10T10:01:21.136Z,1.58
2022-11-10T10:03:57.881Z,1.70
2022-11-10T10:06:49.908Z,3.55
2022-11-10T10:09:30.044Z,1.42
2022-11-10T10:12:12.346Z,1.23
2022-11-10T10:15:10.926Z,1.88
2022-11-10T10:17:53.836Z,1.65
2022-11-10T10:20:32.140Z,1.63
2022-11-10T10:23:15.015Z,1.38
2022-11-10T10:25:54.826Z,1.33
2022-11-10T10:28:36.241Z,1.88
2022-11-10T10:31:18.100Z,1.70
2022-11-10T10:33:49.643Z,1.48
2022-11-10T10:36:24.016Z,1.65
2022-11-10T10:38:59.723Z,1.45
2022-11-10T10:41:32.506Z,1.58
2022-11-10T10:44:16.358Z,2.80
2022-11-10T10:46:50.683Z,1.52
2022-11-10T10:49:31.501Z,1.25
2022-11-10T10:52:10.494Z,0.95
2022-11-10T10:54:42.575Z,1.67
2022-11-10T10:57:24.283Z,1.48
2022-11-10T11:00:18.243Z,1.00
2022-11-10T11:03:13.691Z,1.40
2022-11-10T11:05:44.875Z,1.20
2022-11-10T11:08:20.986Z,0.90
2022-11-10T11:10:57.339Z,1.38
2022-11-10T11:13:32.649Z,1.33
2022-11-10T11:16:14.106Z,1.02
2022-11-10T11:18:44.324Z,0.95
2022-11-10T11:21:30.190Z,1.17
2022-11-10T11:24:16.057Z,1.25
2022-11-10T11:26:57.781Z,1.52
2022-11-10T11:29:41.674Z,0.80
2022-11-10T11:32:31.688Z,0.82
2022-11-10T11:35:28.065Z,0.85
2022-11-10T11:38:10.640Z,1.25
2022-11-10T11:40:52.356Z,1.00
2022-11-10T11:43:50.020Z,1.30
2022-11-10T11:46:33.320Z,1.15
2022-11-10T11:49:31.638Z,0.77
2022-11-10T11:52:10.544Z,1.33
2022-11-10T11:58:02.937Z,0.70
2022-11-10T12:00:46.272Z,0.70
2022-11-10T12:04:05.555Z,0.63
2022-11-10T12:06:49.559Z,1.20
2022-11-10T12:09:36.765Z,1.20
2022-11-10T12:12:36.960Z,0.73
2022-11-10T12:15:28.178Z,0.50
2022-11-10T12:18:09.987Z,0.63
2022-11-10T12:21:08.646Z,0.70
2022-11-10T12:24:23.075Z,0.60
2022-11-10T12:27:00.130Z,1.02
2022-11-10T12:29:36.830Z,0.70
2022-11-10T12:32:14.884Z,0.73
2022-11-10T12:34:49.054Z,0.98
2022-11-10T12:37:36.467Z,1.17
2022-11-10T12:40:18.286Z,0.55
2022-11-10T12:42:58.852Z,1.42
2022-11-10T12:45:42.870Z,0.80
2022-11-10T12:48:16.382Z,1.27
2022-11-10T12:51:00.768Z,0.68
2022-11-10T12:53:35.241Z,0.75
2022-11-10T12:56:25.864Z,0.73
2022-11-10T12:59:37.603Z,0.50
2022-11-10T13:02:38.847Z,0.88
2022-11-10T13:05:37.568Z,0.70
2022-11-10T13:08:34.626Z,0.80
2022-11-10T13:11:32.932Z,1.48
2022-11-10T13:14:05.566Z,0.60
2022-11-10T13:16:54.818Z,0.70
2022-11-10T13:20:05.288Z,0.95
2022-11-10T13:22:47.449Z,0.60
2022-11-10T13:25:45.335Z,1.27
2022-11-10T13:28:18.851Z,0.98
2022-11-10T13:30:53.112Z,0.80
2022-11-10T13:33:45.464Z,0.82
2022-11-10T13:36:46.793Z,0.57
2022-11-10T13:39:35.750Z,0.82
2022-11-10T13:42:20.774Z,1.05
2022-11-10T13:45:11.753Z,0.80
2022-11-10T13:47:56.267Z,0.50
2022-11-10T13:50:56.632Z,0.50
2022-11-10T13:53:40.899Z,1.05
2022-11-10T13:56:33.128Z,0.85
2022-11-10T13:59:30.610Z,0.68
2022-11-10T14:02:53.199Z,0.60
2022-11-10T14:06:10.499Z,0.70
2022-11-10T14:09:02.495Z,0.85
2022-11-10T14:11:38.286Z,0.90
2022-11-10T14:14:39.730Z,0.43
2022-11-10T14:17:18.785Z,0.70
2022-11-10T14:20:07.667Z,0.73
2022-11-10T14:22:44.331Z,0.50
2022-11-10T14:25:35.226Z,0.75
2022-11-10T14:28:20.581Z,1.00
2022-11-10T14:30:59.746Z,0.60
2022-11-10T14:33:33.366Z,0.88
2022-11-10T14:36:18.561Z,0.73
2022-11-10T14:39:17.660Z,1.02
2022-11-10T14:41:55.406Z,0.60
2022-11-10T14:44:45.005Z,1.17
2022-11-10T14:47:26.648Z,0.40
2022-11-10T14:50:14.528Z,0.90
2022-11-10T14:52:46.979Z,0.73
2022-11-10T14:55:22.430Z,0.60
2022-11-10T14:58:04.499Z,0.70
2022-11-10T15:00:40.748Z,0.70
2022-11-10T15:03:15.587Z,0.47
2022-11-10T15:05:46.287Z,0.50
2022-11-10T15:08:17.608Z,0.57
2022-11-10T15:10:50.691Z,0.52
2022-11-10T15:13:39.146Z,0.65
2022-11-10T15:16:25.582Z,0.95
2022-11-10T15:18:57.595Z,0.98
2022-11-10T15:21:34.282Z,1.25
2022-11-10T15:24:08.587Z,0.55
2022-11-10T15:26:42.465Z,0.80
2022-11-10T15:29:24.591Z,0.60
2022-11-10T15:31:55.520Z,0.95
2022-11-10T15:34:43.816Z,0.50
2022-11-10T15:37:30.556Z,0.63
2022-11-10T15:40:31.190Z,1.15
2022-11-10T15:43:16.775Z,0.90
2022-11-10T15:45:52.425Z,0.90
2022-11-10T15:48:23.455Z,1.08
2022-11-10T15:50:56.557Z,1.13
2022-11-10T15:53:30.543Z,0.85
2022-11-10T15:56:00.555Z,0.65
2022-11-10T15:58:31.264Z,0.70
2022-11-10T16:01:04.353Z,1.00
2022-11-10T16:03:34.542Z,0.70
2022-11-10T16:06:04.504Z,0.80
2022-11-10T16:08:35.567Z,0.70
2022-11-10T16:11:06.550Z,0.70
2022-11-10T16:13:38.161Z,0.75
2022-11-10T16:16:14.138Z,0.70
2022-11-10T16:18:44.423Z,0.57
2022-11-10T16:21:16.185Z,0.93
2022-11-10T16:23:46.797Z,1.30
2022-11-10T16:26:18.979Z,0.93
2022-11-10T16:28:49.125Z,0.82
2022-11-10T16:31:24.625Z,0.85
2022-11-10T16:33:54.633Z,1.23
2022-11-10T16:36:29.293Z,0.77
2022-11-10T16:38:59.777Z,0.52
2022-11-10T16:41:29.834Z,0.80
2022-11-10T16:43:59.944Z,0.90
2022-11-10T16:46:33.369Z,0.65
2022-11-10T16:49:06.171Z,1.10
2022-11-10T16:51:44.145Z,0.60
2022-11-10T16:54:17.361Z,1.00
2022-11-10T16:56:47.482Z,0.63
2022-11-10T16:59:17.558Z,0.90
2022-11-10T17:01:51.387Z,1.60
2022-11-10T17:04:21.431Z,1.05
2022-11-10T17:06:51.554Z,1.00
2022-11-10T17:09:26.772Z,0.75
2022-11-10T17:11:56.802Z,0.68
2022-11-10T17:14:26.771Z,0.85
2022-11-10T17:16:59.323Z,0.95
2022-11-10T17:19:29.940Z,0.50
2022-11-10T17:22:00.005Z,0.70
2022-11-10T17:24:30.025Z,0.60
2022-11-10T17:27:00.115Z,1.08
2022-11-10T17:29:30.411Z,1.25
2022-11-10T17:32:03.196Z,1.27
2022-11-10T17:34:33.140Z,1.45
2022-11-10T17:37:03.183Z,1.10
2022-11-10T17:39:33.187Z,1.23
2022-11-10T17:42:03.696Z,1.00
2022-11-10T17:44:33.894Z,1.75
2022-11-10T17:47:06.557Z,1.25
2022-11-10T17:49:36.539Z,1.50
2022-11-10T17:52:06.942Z,1.92
2022-11-10T17:54:37.142Z,1.80
2022-11-10T17:57:08.135Z,1.67
2022-11-10T18:02:14.009Z,1.60
2022-11-10T18:04:44.047Z,2.08
2022-11-10T18:07:14.159Z,1.88
2022-11-10T18:09:44.225Z,1.80
2022-11-10T18:12:15.785Z,1.58
2022-11-10T18:14:45.849Z,1.38
2022-11-10T18:17:18.881Z,1.88
2022-11-10T18:19:49.112Z,1.88
2022-11-10T18:22:19.216Z,2.00
2022-11-10T18:24:49.389Z,1.70
2022-11-10T18:27:19.472Z,1.58
2022-11-10T18:29:49.542Z,2.00
2022-11-10T18:32:23.248Z,3.33
2022-11-10T18:34:53.287Z,2.63
2022-11-10T18:37:23.766Z,2.67
2022-11-10T18:39:53.925Z,2.35
2022-11-10T18:42:24.773Z,2.30
2022-11-10T18:44:55.146Z,2.65
2022-11-10T18:47:27.880Z,2.25
2022-11-10T18:49:57.894Z,2.45
2022-11-10T18:52:28.021Z,2.63
2022-11-10T18:54:58.188Z,2.72
2022-11-10T18:57:28.517Z,2.83
2022-11-10T18:59:58.593Z,2.72
2022-11-10T19:02:31.248Z,2.85
2022-11-10T19:05:02.597Z,2.25
2022-11-10T19:07:32.761Z,2.22
2022-11-10T19:10:03.446Z,3.28
2022-11-10T19:12:34.822Z,2.45
2022-11-10T19:15:04.880Z,9.38
2022-11-10T19:17:37.632Z,4.13
2022-11-10T19:20:10.187Z,3.20
2022-11-10T19:22:40.506Z,2.72
2022-11-10T19:25:11.137Z,3.03
2022-11-10T19:27:41.441Z,2.83
2022-11-10T19:30:13.020Z,3.50
2022-11-10T19:32:45.658Z,2.58
2022-11-10T19:35:15.858Z,3.25
2022-11-10T19:37:48.287Z,2.75
2022-11-10T19:40:18.475Z,3.03
2022-11-10T19:42:48.651Z,3.38
2022-11-10T19:45:18.923Z,3.05
2022-11-10T19:47:51.581Z,4.03
2022-11-10T19:50:21.744Z,4.90
2022-11-10T19:52:51.863Z,2.95
2022-11-10T19:55:21.845Z,3.20
2022-11-10T19:57:52.304Z,3.33
2022-11-10T20:00:22.717Z,2.85
2022-11-10T20:02:55.460Z,3.08
2022-11-10T20:05:25.505Z,2.80
2022-11-10T20:08:10.049Z,2.95
2022-11-10T20:10:40.720Z,3.38
2022-11-10T20:13:11.594Z,2.80
2022-11-10T20:15:42.679Z,2.83
2022-11-10T20:18:15.420Z,3.45
2022-11-10T20:20:45.483Z,3.42
2022-11-10T20:23:15.977Z,3.35
2022-11-10T20:25:46.402Z,4.20
2022-11-10T20:28:18.631Z,3.17
2022-11-10T20:30:48.734Z,3.67
2022-11-10T20:33:21.793Z,2.72
2022-11-10T20:35:52.052Z,3.05
2022-11-10T20:38:23.648Z,3.78
2022-11-10T20:40:53.849Z,3.75
2022-11-10T20:43:24.182Z,3.15
2022-11-10T20:45:55.474Z,3.75
2022-11-10T20:48:28.165Z,3.70
2022-11-10T20:50:58.179Z,5.25
2022-11-10T20:53:28.626Z,3.00
2022-11-10T20:56:02.691Z,3.53
2022-11-10T20:58:32.928Z,3.10
2022-11-10T21:01:04.956Z,3.63
2022-11-10T21:03:38.139Z,2.28
2022-11-10T21:06:09.019Z,2.90
2022-11-10T21:08:39.030Z,3.10
2022-11-10T21:11:09.788Z,3.33
2022-11-10T21:13:37.836Z,2.95
2022-11-10T21:16:09.999Z,2.88
2022-11-10T21:18:42.898Z,2.45
2022-11-10T21:21:23.062Z,2.85
2022-11-10T21:23:57.537Z,3.05
2022-11-10T21:26:27.726Z,2.83
2022-11-10T21:28:57.746Z,2.60
2022-11-10T21:31:28.031Z,2.38
2022-11-10T21:34:01.375Z,2.67
2022-11-10T21:36:32.008Z,2.72
2022-11-10T21:39:02.390Z,2.80
2022-11-10T21:41:32.423Z,2.75
2022-11-10T21:44:02.560Z,2.63
2022-11-10T21:46:32.849Z,2.28
2022-11-10T21:49:07.831Z,3.22
2022-11-10T21:51:38.163Z,2.42
2022-11-10T21:54:08.287Z,2.53
2022-11-10T21:56:38.379Z,2.90
2022-11-10T21:59:08.633Z,2.30
2022-11-10T22:01:39.080Z,2.55
2022-11-10T22:04:11.896Z,3.20
2022-11-10T22:06:54.199Z,3.33
2022-11-10T22:09:36.393Z,3.10
2022-11-10T22:12:19.044Z,3.50
2022-11-10T22:15:01.464Z,4.18
2022-11-10T22:17:44.167Z,2.47
2022-11-10T22:20:17.553Z,4.07
2022-11-10T22:22:47.826Z,4.30
2022-11-10T22:25:18.018Z,3.72
2022-11-10T22:27:48.013Z,3.75
2022-11-10T22:30:18.217Z,4.70
2022-11-10T22:32:48.277Z,4.05
2022-11-10T22:35:33.014Z,3.50
2022-11-10T22:38:07.397Z,3.83
2022-11-10T22:40:51.379Z,4.35
2022-11-10T22:43:34.000Z,4.35
2022-11-10T22:46:04.180Z,4.40
2022-11-10T22:48:35.590Z,4.25
2022-11-10T22:51:08.469Z,4.45
2022-11-10T22:53:40.367Z,4.97
2022-11-10T22:56:10.726Z,5.22
2022-11-10T22:58:40.956Z,4.88
2022-11-10T23:01:12.354Z,5.05
2022-11-10T23:03:43.430Z,4.88
2022-11-10T23:08:47.012Z,5.25
2022-11-10T23:11:20.108Z,5.50
2022-11-10T23:13:50.938Z,4.78
2022-11-10T23:16:23.364Z,5.15
2022-11-10T23:18:55.036Z,5.18
2022-11-10T23:21:29.329Z,5.43
2022-11-10T23:24:00.164Z,5.35
2022-11-10T23:26:34.134Z,5.68
2022-11-10T23:29:04.417Z,5.03
2022-11-10T23:31:34.516Z,6.22
2022-11-10T23:34:04.634Z,5.30
2022-11-10T23:36:37.856Z,5.38
2022-11-10T23:39:08.252Z,5.75
2022-11-10T23:41:38.405Z,5.20
2022-11-10T23:44:08.432Z,4.00
2022-11-10T23:46:38.440Z,6.18
2022-11-10T23:49:08.574Z,7.00
2022-11-10T23:51:41.139Z,6.72
2022-11-10T23:54:11.324Z,6.18
2022-11-10T23:56:41.535Z,5.75
2022-11-10T23:59:11.788Z,6.95
